createdAt,value
2023-03-02T00:01:08.548Z,40.47
2023-03-02T00:03:42.332Z,41.00
2023-03-02T00:06:14.961Z,40.73
2023-03-02T00:08:47.979Z,41.10
2023-03-02T00:11:21.877Z,40.70
2023-03-02T00:13:54.167Z,38.23
2023-03-02T00:16:26.721Z,41.13
2023-03-02T00:18:58.977Z,40.30
2023-03-02T00:21:32.103Z,44.63
2023-03-02T00:24:06.003Z,41.07
2023-03-02T00:26:39.001Z,38.25
2023-03-02T00:29:11.582Z,38.80
2023-03-02T00:31:44.098Z,38.13
2023-03-02T00:34:17.084Z,39.33
2023-03-02T00:36:50.328Z,38.43
2023-03-02T00:39:22.638Z,38.97
2023-03-02T00:41:55.149Z,37.40
2023-03-02T00:44:27.403Z,39.27
2023-03-02T00:46:59.817Z,39.10
2023-03-02T00:49:33.064Z,38.03
2023-03-02T00:52:07.224Z,39.57
2023-03-02T00:54:39.517Z,36.30
2023-03-02T00:57:11.925Z,38.90
2023-03-02T00:59:44.237Z,36.60
2023-03-02T01:02:26.260Z,38.37
2023-03-02T01:04:59.943Z,38.10
2023-03-02T01:07:35.313Z,36.87
2023-03-02T01:10:10.736Z,37.53
2023-03-02T01:12:43.835Z,36.00
2023-03-02T01:15:16.580Z,37.73
2023-03-02T01:17:48.883Z,36.45
2023-03-02T01:20:21.622Z,37.87
2023-03-02T01:22:56.748Z,41.10
2023-03-02T01:25:29.121Z,39.30
2023-03-02T01:28:04.097Z,38.20
2023-03-02T01:30:37.258Z,41.93
2023-03-02T01:33:09.745Z,40.17
2023-03-02T01:35:43.234Z,38.40
2023-03-02T01:38:16.741Z,39.20
2023-03-02T01:40:49.608Z,40.35
2023-03-02T01:43:21.971Z,40.70
2023-03-02T01:45:57.601Z,42.07
2023-03-02T01:48:53.541Z,41.47
2023-03-02T01:51:39.595Z,42.60
2023-03-02T01:54:17.442Z,42.03
2023-03-02T01:56:51.500Z,42.40
2023-03-02T01:59:25.716Z,41.05
2023-03-02T02:02:02.262Z,39.50
2023-03-02T02:04:37.693Z,40.60
2023-03-02T02:07:11.411Z,42.45
2023-03-02T02:09:49.384Z,40.33
2023-03-02T02:12:23.772Z,42.67
2023-03-02T02:15:01.115Z,44.00
2023-03-02T02:17:38.560Z,41.70
2023-03-02T02:20:21.613Z,43.40
2023-03-02T02:23:06.423Z,43.07
2023-03-02T02:28:24.607Z,33.53
2023-03-02T02:31:14.238Z,35.47
2023-03-02T02:33:53.093Z,35.63
2023-03-02T02:36:34.178Z,32.57
2023-03-02T02:39:16.626Z,30.05
2023-03-02T02:41:52.430Z,29.20
2023-03-02T02:44:25.306Z,31.13
2023-03-02T02:46:58.057Z,31.73
2023-03-02T02:49:38.222Z,28.67
2023-03-02T02:52:13.575Z,28.93
2023-03-02T02:54:49.438Z,28.20
2023-03-02T02:57:25.364Z,28.73
2023-03-02T03:00:03.081Z,29.23
2023-03-02T03:02:45.820Z,28.40
2023-03-02T03:05:18.480Z,29.63
2023-03-02T03:07:51.113Z,28.70
2023-03-02T03:10:30.486Z,26.43
2023-03-02T03:13:03.992Z,27.90
2023-03-02T03:15:36.283Z,30.08
2023-03-02T03:18:10.684Z,28.93
2023-03-02T03:20:45.659Z,28.73
2023-03-02T03:23:18.343Z,28.13
2023-03-02T03:25:51.125Z,26.87
2023-03-02T03:28:23.451Z,27.80
2023-03-02T03:30:56.517Z,27.37
2023-03-02T03:33:29.133Z,28.90
2023-03-02T03:36:02.532Z,28.37
2023-03-02T03:38:36.015Z,28.32
2023-03-02T03:41:08.599Z,29.00
2023-03-02T03:43:40.874Z,28.10
2023-03-02T03:46:13.376Z,30.30
2023-03-02T03:48:45.746Z,29.10
2023-03-02T03:51:18.893Z,27.87
2023-03-02T03:54:00.156Z,28.60
2023-03-02T03:59:12.562Z,26.40
2023-03-02T04:01:51.292Z,29.83
2023-03-02T04:06:56.808Z,26.60
2023-03-02T04:09:32.471Z,26.40
2023-03-02T04:12:05.498Z,25.53
2023-03-02T04:14:38.627Z,28.07
2023-03-02T04:17:11.136Z,27.83
2023-03-02T04:19:47.332Z,28.00
2023-03-02T04:22:20.374Z,29.23
2023-03-02T04:24:53.342Z,30.47
2023-03-02T04:27:25.778Z,32.07
2023-03-02T04:29:58.111Z,32.47
2023-03-02T04:32:34.473Z,33.17
2023-03-02T04:35:09.011Z,27.57
2023-03-02T04:37:42.720Z,30.23
2023-03-02T04:40:17.694Z,29.10
2023-03-02T04:42:52.468Z,28.97
2023-03-02T04:45:25.078Z,31.80
2023-03-02T04:47:59.907Z,31.03
2023-03-02T04:50:32.271Z,32.17
2023-03-02T04:53:08.261Z,33.20
2023-03-02T04:55:41.873Z,33.07
2023-03-02T04:58:14.838Z,32.10
2023-03-02T05:00:47.654Z,32.37
2023-03-02T05:03:20.199Z,32.47
2023-03-02T05:05:52.977Z,30.90
2023-03-02T05:08:25.644Z,30.90
2023-03-02T05:10:58.445Z,31.83
2023-03-02T05:13:31.307Z,32.43
2023-03-02T05:16:05.538Z,31.57
2023-03-02T05:18:37.859Z,30.30
2023-03-02T05:21:10.598Z,32.47
2023-03-02T05:23:43.802Z,29.07
2023-03-02T05:26:17.038Z,36.73
2023-03-02T05:28:50.346Z,35.20
2023-03-02T05:31:27.509Z,39.07
2023-03-02T05:34:00.050Z,45.93
2023-03-02T05:36:34.052Z,37.73
2023-03-02T05:39:08.160Z,35.83
2023-03-02T05:41:41.948Z,38.42
2023-03-02T05:44:14.348Z,37.40
2023-03-02T05:46:47.251Z,34.50
2023-03-02T05:49:19.640Z,34.50
2023-03-02T05:51:52.486Z,33.53
2023-03-02T05:54:24.756Z,36.83
2023-03-02T05:56:57.316Z,32.87
2023-03-02T05:59:29.712Z,41.33
2023-03-02T06:02:02.615Z,41.13
2023-03-02T06:04:35.043Z,38.17
2023-03-02T06:07:08.482Z,33.93
2023-03-02T06:09:42.537Z,37.17
2023-03-02T06:12:15.913Z,37.27
2023-03-02T06:14:48.238Z,36.13
2023-03-02T06:17:21.251Z,36.73
2023-03-02T06:19:55.884Z,38.47
2023-03-02T06:22:29.830Z,38.30
2023-03-02T06:25:04.452Z,36.90
2023-03-02T06:27:38.036Z,35.13
2023-03-02T06:30:14.533Z,41.90
2023-03-02T06:32:46.996Z,39.90
2023-03-02T06:35:19.921Z,36.53
2023-03-02T06:37:52.836Z,36.30
2023-03-02T06:40:25.216Z,32.67
2023-03-02T06:43:01.313Z,33.53
2023-03-02T06:45:39.118Z,34.07
2023-03-02T06:48:11.692Z,34.30
2023-03-02T06:50:45.947Z,36.10
2023-03-02T06:55:51.645Z,36.17
2023-03-02T06:58:24.323Z,37.43
2023-03-02T07:00:56.655Z,38.60
2023-03-02T07:03:29.030Z,40.67
2023-03-02T07:06:01.359Z,38.70
2023-03-02T07:08:34.844Z,35.67
2023-03-02T07:11:11.935Z,38.03
2023-03-02T07:13:44.359Z,35.77
2023-03-02T07:16:17.759Z,34.83
2023-03-02T07:18:50.141Z,37.40
2023-03-02T07:21:22.489Z,36.13
2023-03-02T07:23:54.918Z,36.80
2023-03-02T07:26:28.092Z,33.60
2023-03-02T07:29:01.265Z,36.40
2023-03-02T07:31:37.229Z,37.45
2023-03-02T07:34:09.524Z,39.00
2023-03-02T07:36:41.750Z,38.73
2023-03-02T07:39:14.343Z,37.10
2023-03-02T07:41:46.908Z,39.33
2023-03-02T07:44:19.449Z,39.60
2023-03-02T07:46:51.916Z,38.53
2023-03-02T07:49:24.742Z,38.67
2023-03-02T07:51:57.019Z,39.27
2023-03-02T07:54:30.879Z,40.10
2023-03-02T07:57:03.979Z,38.65
2023-03-02T07:59:36.496Z,41.07
2023-03-02T08:02:10.710Z,43.53
2023-03-02T08:04:43.728Z,46.40
2023-03-02T08:07:16.222Z,41.93
2023-03-02T08:09:48.902Z,41.33
2023-03-02T08:12:21.388Z,42.93
2023-03-02T08:14:54.144Z,42.05
2023-03-02T08:17:26.596Z,42.50
2023-03-02T08:19:59.278Z,41.30
2023-03-02T08:22:32.461Z,43.47
2023-03-02T08:25:09.069Z,42.13
2023-03-02T08:27:41.556Z,42.10
2023-03-02T08:30:16.411Z,41.97
2023-03-02T08:32:48.849Z,40.73
2023-03-02T08:35:22.602Z,40.10
2023-03-02T08:37:55.400Z,40.70
2023-03-02T08:40:28.056Z,39.37
2023-03-02T08:43:00.345Z,39.47
2023-03-02T08:45:36.091Z,37.50
2023-03-02T08:48:09.845Z,36.77
2023-03-02T08:50:43.984Z,37.37
2023-03-02T08:53:16.553Z,36.40
2023-03-02T08:55:49.146Z,34.70
2023-03-02T08:58:21.903Z,37.53
2023-03-02T09:00:54.680Z,36.87
2023-03-02T09:03:27.090Z,33.27
2023-03-02T09:05:59.771Z,36.70
2023-03-02T09:08:32.090Z,36.27
2023-03-02T09:11:06.536Z,32.30
2023-03-02T09:16:12.580Z,27.33
2023-03-02T09:18:45.128Z,27.57
2023-03-02T09:21:17.563Z,25.53
2023-03-02T09:23:53.904Z,24.43
2023-03-02T09:26:27.287Z,27.93
2023-03-02T09:29:00.908Z,29.87
2023-03-02T09:31:38.869Z,28.80
2023-03-02T09:34:11.478Z,24.77
2023-03-02T09:36:44.077Z,21.57
2023-03-02T09:39:16.384Z,18.17
2023-03-02T09:42:17.851Z,14.77
2023-03-02T09:45:35.373Z,22.17
2023-03-02T09:48:18.723Z,14.60
2023-03-02T09:51:01.246Z,13.80
2023-03-02T09:53:44.299Z,13.57
2023-03-02T09:56:20.226Z,12.10
2023-03-02T09:59:00.535Z,10.60
2023-03-02T10:01:44.130Z,9.43
2023-03-02T10:04:29.138Z,9.80
2023-03-02T10:07:12.807Z,12.40
2023-03-02T10:09:45.689Z,12.20
2023-03-02T10:12:38.042Z,14.20
2023-03-02T10:15:15.946Z,10.83
2023-03-02T10:18:00.859Z,10.57
2023-03-02T10:20:47.555Z,9.77
2023-03-02T10:23:34.206Z,9.45
2023-03-02T10:26:16.077Z,8.63
2023-03-02T10:28:52.217Z,7.87
2023-03-02T10:31:30.758Z,6.73
2023-03-02T10:34:04.605Z,7.20
2023-03-02T10:36:41.625Z,6.30
2023-03-02T10:39:17.293Z,5.23
2023-03-02T10:41:54.501Z,5.30
2023-03-02T10:44:29.611Z,5.10
2023-03-02T10:47:01.904Z,6.20
2023-03-02T10:49:39.493Z,6.17
2023-03-02T10:52:17.326Z,6.43
2023-03-02T10:54:50.142Z,4.97
2023-03-02T10:57:36.648Z,5.50
2023-03-02T11:00:19.368Z,5.80
2023-03-02T11:02:57.743Z,5.93
2023-03-02T11:05:35.557Z,5.70
2023-03-02T11:08:12.532Z,5.33
2023-03-02T11:10:57.012Z,5.17
2023-03-02T11:13:35.582Z,5.17
2023-03-02T11:16:29.242Z,6.17
2023-03-02T11:19:06.706Z,5.92
2023-03-02T11:21:43.065Z,6.83
2023-03-02T11:24:20.012Z,6.10
2023-03-02T11:26:55.117Z,5.70
2023-03-02T11:29:43.292Z,5.27
2023-03-02T11:32:21.543Z,5.07
2023-03-02T11:34:58.002Z,5.30
2023-03-02T11:37:41.176Z,5.70
2023-03-02T11:40:23.963Z,5.80
2023-03-02T11:42:59.912Z,5.63
2023-03-02T11:45:35.064Z,6.30
2023-03-02T11:48:16.334Z,5.63
2023-03-02T11:50:57.718Z,5.77
2023-03-02T11:53:35.100Z,6.07
2023-03-02T11:56:08.459Z,6.80
2023-03-02T11:58:43.733Z,6.80
2023-03-02T12:01:23.627Z,6.77
2023-03-02T12:04:07.609Z,7.53
2023-03-02T12:06:44.383Z,7.75
2023-03-02T12:09:39.595Z,7.90
2023-03-02T12:12:35.358Z,6.97
2023-03-02T12:15:30.878Z,6.70
2023-03-02T12:18:03.630Z,7.07
2023-03-02T12:20:35.928Z,7.17
2023-03-02T12:23:25.298Z,7.53
2023-03-02T12:26:09.052Z,7.37
2023-03-02T12:28:42.568Z,8.23
2023-03-02T12:31:16.542Z,8.18
2023-03-02T12:33:52.447Z,7.70
2023-03-02T12:36:33.598Z,7.93
2023-03-02T12:39:27.535Z,7.70
2023-03-02T12:42:31.831Z,8.57
2023-03-02T12:45:16.912Z,7.20
2023-03-02T12:47:54.207Z,6.73
2023-03-02T12:50:31.358Z,7.17
2023-03-02T12:53:06.435Z,6.87
2023-03-02T12:55:41.292Z,6.87
2023-03-02T12:58:20.407Z,6.50
2023-03-02T13:00:58.126Z,6.97
2023-03-02T13:03:32.651Z,8.20
2023-03-02T13:06:13.337Z,6.53
2023-03-02T13:08:49.128Z,7.57
2023-03-02T13:11:29.091Z,7.57
2023-03-02T13:14:05.139Z,7.70
2023-03-02T13:16:38.240Z,6.63
2023-03-02T13:19:16.706Z,7.60
2023-03-02T13:21:49.403Z,7.50
2023-03-02T13:24:46.913Z,7.30
2023-03-02T13:27:21.691Z,8.93
2023-03-02T13:29:55.794Z,8.73
2023-03-02T13:32:35.990Z,9.67
2023-03-02T13:35:20.667Z,9.40
2023-03-02T13:38:01.762Z,9.77
2023-03-02T13:40:42.911Z,8.93
2023-03-02T13:43:37.840Z,7.90
2023-03-02T13:49:10.677Z,9.13
2023-03-02T13:51:46.778Z,10.57
2023-03-02T13:54:25.315Z,10.13
2023-03-02T13:57:00.525Z,9.17
2023-03-02T13:59:36.716Z,11.57
2023-03-02T14:02:23.779Z,10.40
2023-03-02T14:04:56.917Z,11.10
2023-03-02T14:07:29.397Z,12.00
2023-03-02T14:10:02.756Z,11.97
2023-03-02T14:12:36.115Z,12.00
2023-03-02T14:15:17.171Z,12.27
2023-03-02T14:17:50.512Z,12.30
2023-03-02T14:20:23.326Z,13.67
2023-03-02T14:22:55.627Z,13.43
2023-03-02T14:25:28.845Z,15.00
2023-03-02T14:28:01.205Z,14.50
2023-03-02T14:30:36.103Z,14.00
2023-03-02T14:33:16.972Z,14.33
2023-03-02T14:35:50.181Z,15.63
2023-03-02T14:38:24.801Z,15.30
2023-03-02T14:40:57.700Z,14.07
2023-03-02T14:43:30.858Z,15.30
2023-03-02T14:46:03.830Z,16.90
2023-03-02T14:48:36.819Z,16.27
2023-03-02T14:51:23.214Z,15.83
2023-03-02T14:53:59.376Z,17.47
2023-03-02T14:56:33.474Z,16.80
2023-03-02T14:59:07.075Z,17.10
2023-03-02T15:01:40.263Z,16.67
2023-03-02T15:04:13.322Z,16.73
2023-03-02T15:06:47.480Z,16.77
2023-03-02T15:09:20.129Z,16.27
2023-03-02T15:11:52.626Z,15.83
2023-03-02T15:14:24.959Z,15.67
2023-03-02T15:16:57.636Z,14.30
2023-03-02T15:19:29.919Z,16.77
2023-03-02T15:22:02.429Z,15.33
2023-03-02T15:24:36.249Z,14.35
2023-03-02T15:27:09.696Z,15.27
2023-03-02T15:29:46.456Z,16.43
2023-03-02T15:32:19.184Z,15.17
2023-03-02T15:34:51.580Z,13.67
2023-03-02T15:37:23.896Z,14.27
2023-03-02T15:40:02.033Z,13.60
2023-03-02T15:42:36.582Z,14.00
2023-03-02T15:45:11.616Z,13.10
2023-03-02T15:47:44.240Z,13.03
2023-03-02T15:50:16.816Z,14.67
2023-03-02T15:52:49.671Z,13.33
2023-03-02T15:55:22.115Z,14.37
2023-03-02T15:57:58.306Z,14.15
2023-03-02T16:00:30.727Z,13.90
2023-03-02T16:03:03.227Z,14.50
2023-03-02T16:05:36.088Z,14.43
2023-03-02T16:08:12.622Z,15.03
2023-03-02T16:10:45.247Z,15.37
2023-03-02T16:13:17.963Z,15.27
2023-03-02T16:15:50.578Z,15.07
2023-03-02T16:18:24.349Z,14.33
2023-03-02T16:20:58.117Z,15.57
2023-03-02T16:23:31.548Z,13.10
2023-03-02T16:26:13.448Z,12.90
2023-03-02T16:28:49.173Z,14.53
2023-03-02T16:31:29.357Z,15.57
2023-03-02T16:34:07.660Z,15.03
2023-03-02T16:36:42.312Z,15.93
2023-03-02T16:41:47.550Z,14.60
2023-03-02T16:44:20.729Z,17.73
2023-03-02T16:46:56.952Z,19.63
2023-03-02T16:49:33.786Z,22.97
2023-03-02T16:52:07.780Z,23.27
2023-03-02T16:54:40.416Z,30.03
2023-03-02T16:57:13.233Z,42.23
2023-03-02T16:59:45.630Z,44.23
2023-03-02T17:02:19.209Z,46.07
2023-03-02T17:04:51.896Z,40.87
2023-03-02T17:07:24.566Z,37.50
2023-03-02T17:09:59.117Z,40.37
2023-03-02T17:12:42.841Z,41.47
2023-03-02T17:15:18.102Z,35.47
2023-03-02T17:17:50.686Z,39.73
2023-03-02T17:20:23.375Z,39.77
2023-03-02T17:22:56.519Z,34.93
2023-03-02T17:25:29.504Z,31.40
2023-03-02T17:28:05.024Z,27.40
2023-03-02T17:30:38.163Z,29.67
2023-03-02T17:33:10.847Z,28.33
2023-03-02T17:35:46.394Z,26.65
2023-03-02T17:38:19.651Z,28.40
2023-03-02T17:40:51.899Z,32.47
2023-03-02T17:43:24.665Z,34.57
2023-03-02T17:45:58.098Z,29.43
2023-03-02T17:48:30.706Z,27.02
2023-03-02T17:51:03.212Z,25.73
2023-03-02T17:53:37.095Z,27.13
2023-03-02T17:56:11.814Z,25.48
2023-03-02T17:58:45.542Z,26.00
2023-03-02T18:01:17.991Z,25.92
2023-03-02T18:03:50.495Z,25.17
2023-03-02T18:06:23.117Z,24.20
2023-03-02T18:08:55.922Z,25.90
2023-03-02T18:11:30.496Z,28.10
2023-03-02T18:14:03.384Z,29.53
2023-03-02T18:16:52.308Z,29.32
2023-03-02T18:19:25.052Z,29.80
2023-03-02T18:21:57.657Z,30.30
2023-03-02T18:24:33.808Z,29.37
2023-03-02T18:27:11.366Z,28.40
2023-03-02T18:29:44.117Z,26.80
2023-03-02T18:32:17.710Z,27.13
2023-03-02T18:34:50.333Z,26.97
2023-03-02T18:37:22.972Z,26.87
2023-03-02T18:39:55.888Z,25.47
2023-03-02T18:42:33.949Z,26.50
2023-03-02T18:45:19.134Z,24.90
2023-03-02T18:47:51.713Z,26.77
2023-03-02T18:50:25.266Z,29.60
2023-03-02T18:52:58.386Z,33.20
2023-03-02T18:55:31.260Z,29.77
2023-03-02T18:58:03.906Z,31.33
2023-03-02T19:00:39.966Z,33.42
2023-03-02T19:03:12.974Z,40.73
2023-03-02T19:05:49.497Z,43.23
2023-03-02T19:08:23.622Z,49.60
2023-03-02T19:10:57.230Z,40.27
2023-03-02T19:13:33.477Z,39.18
2023-03-02T19:16:09.449Z,38.00
2023-03-02T19:18:42.300Z,37.23
2023-03-02T19:21:15.073Z,36.37
2023-03-02T19:23:47.937Z,36.27
2023-03-02T19:26:21.462Z,36.03
2023-03-02T19:28:55.367Z,35.67
2023-03-02T19:31:31.939Z,34.75
2023-03-02T19:34:10.369Z,37.23
2023-03-02T19:36:47.919Z,35.53
2023-03-02T19:39:22.281Z,38.13
2023-03-02T19:42:02.366Z,43.27
2023-03-02T19:44:43.382Z,61.67
2023-03-02T19:47:19.493Z,50.17
2023-03-02T19:49:57.108Z,54.23
2023-03-02T19:52:42.414Z,55.27
2023-03-02T19:55:20.884Z,63.20
2023-03-02T19:58:05.611Z,56.00
2023-03-02T20:00:43.232Z,54.17
2023-03-02T20:03:22.237Z,58.20
2023-03-02T20:06:07.778Z,53.77
2023-03-02T20:08:52.103Z,54.90
2023-03-02T20:11:27.051Z,54.87
2023-03-02T20:14:03.220Z,53.57
2023-03-02T20:16:45.115Z,54.97
2023-03-02T20:19:22.799Z,51.27
2023-03-02T20:21:58.400Z,57.70
2023-03-02T20:24:51.403Z,57.43
2023-03-02T20:27:27.451Z,61.93
2023-03-02T20:30:18.023Z,66.37
2023-03-02T20:32:52.603Z,77.42
2023-03-02T20:35:31.698Z,79.97
2023-03-02T20:38:16.346Z,76.87
2023-03-02T20:40:58.806Z,73.40
2023-03-02T20:43:35.308Z,66.63
2023-03-02T20:46:22.190Z,68.33
2023-03-02T20:49:09.669Z,70.00
2023-03-02T20:51:49.425Z,66.17
2023-03-02T20:54:27.869Z,65.60
2023-03-02T20:57:09.069Z,65.20
2023-03-02T20:59:46.098Z,63.63
2023-03-02T21:02:28.367Z,63.00
2023-03-02T21:05:05.512Z,63.63
2023-03-02T21:07:44.383Z,61.53
2023-03-02T21:10:21.756Z,66.77
2023-03-02T21:12:55.310Z,69.73
2023-03-02T21:15:29.456Z,70.93
2023-03-02T21:18:02.156Z,63.30
2023-03-02T21:23:17.278Z,66.53
2023-03-02T21:25:50.177Z,67.73
2023-03-02T21:28:22.937Z,71.27
2023-03-02T21:30:55.362Z,66.17
2023-03-02T21:33:29.052Z,71.57
2023-03-02T21:36:01.671Z,71.43
2023-03-02T21:38:36.652Z,67.17
2023-03-02T21:41:14.826Z,66.27
2023-03-02T21:43:48.644Z,62.00
2023-03-02T21:46:24.167Z,61.47
2023-03-02T21:48:58.332Z,63.40
2023-03-02T21:51:34.010Z,61.25
2023-03-02T21:54:10.547Z,63.80
2023-03-02T21:56:46.136Z,62.77
2023-03-02T21:59:18.919Z,64.77
2023-03-02T22:01:51.654Z,63.83
2023-03-02T22:04:24.787Z,67.10
2023-03-02T22:06:57.433Z,68.43
2023-03-02T22:09:30.173Z,65.23
2023-03-02T22:12:02.964Z,63.37
2023-03-02T22:14:36.591Z,65.60
2023-03-02T22:17:20.476Z,63.03
2023-03-02T22:19:54.509Z,64.17
2023-03-02T22:22:30.577Z,63.03
2023-03-02T22:25:16.202Z,61.40
2023-03-02T22:27:50.403Z,61.80
2023-03-02T22:30:27.104Z,64.57
2023-03-02T22:33:01.194Z,65.07
2023-03-02T22:35:34.305Z,63.80
2023-03-02T22:38:15.146Z,64.87
2023-03-02T22:40:49.579Z,60.67
2023-03-02T22:43:29.623Z,59.33
2023-03-02T22:46:16.812Z,58.90
2023-03-02T22:48:51.359Z,61.30
2023-03-02T22:51:25.947Z,65.03
2023-03-02T22:54:01.857Z,65.60
2023-03-02T22:56:39.083Z,63.05
2023-03-02T22:59:21.758Z,63.20
2023-03-02T23:01:55.801Z,59.87
2023-03-02T23:04:38.166Z,61.80
2023-03-02T23:07:21.480Z,57.50
2023-03-02T23:09:53.979Z,58.50
2023-03-02T23:12:29.115Z,58.43
2023-03-02T23:15:03.115Z,60.40
2023-03-02T23:17:39.940Z,59.75
2023-03-02T23:20:17.132Z,58.20
2023-03-02T23:22:52.147Z,59.60
2023-03-02T23:25:25.074Z,57.40
2023-03-02T23:27:57.692Z,59.50
2023-03-02T23:30:30.364Z,58.10
2023-03-02T23:33:02.845Z,61.63
2023-03-02T23:35:38.079Z,58.90
2023-03-02T23:38:13.488Z,59.13
2023-03-02T23:40:49.329Z,61.67
2023-03-02T23:43:24.433Z,55.60
2023-03-02T23:45:57.489Z,55.43
2023-03-02T23:48:30.154Z,55.13
2023-03-02T23:51:02.990Z,55.23
2023-03-02T23:53:38.038Z,56.43
2023-03-02T23:56:14.326Z,56.80
2023-03-02T23:58:50.536Z,52.50
